x

Gooses Reef, Md (44062) Weather Station

1:20am - Wed 24th May 2017 All times are EDT. -4 hours from GMT.

  • Wind
    13mph, 16mph gusts
  • Air Temp 61°f
  • Sea Pressure 1007.4mb
  • Gooses Reef, Md
  • Gooses Reef, Md

More Historic Weather Station data

Upgrade to MSW Pro to gain access to the past 30 days of data for over 8000 Wavebouys and Weather Stations around the globe.

Join Pro

Comparision Forecast

View Surf forecast
   
Wed 05/24 1:20am  -   -  13 16 mph 1007.4mb - 61f
1:10am  -   -  11 16 mph 1007.4mb - 61f
1:00am 1.3ft 3s 13 16 mph 1007.4mb 59f 61f
12:50am  -   -  11 16 mph 1007.5mb - 61f
12:40am  -   -  13 16 mph 1007.5mb - 61f
12:30am  -   -  13 16 mph 1007.5mb - 61f
12:20am  -   -  16 18 mph 1007.4mb - 61f
12:10am  -   -  16 18 mph 1007.6mb - 61f
12:00am 1.6ft 3s 16 20 mph 1007.4mb 56f 61f
Tue 05/23 11:50pm  -   -  16 20 mph 1007.5mb - 61f
11:40pm  -   -  16 18 mph 1007.8mb - 61f
11:30pm  -   -  16 18 mph 1007.4mb - 61f
11:20pm  -   -  16 20 mph 1007.1mb - 61f
11:10pm  -   -  18 20 mph 1007.1mb - 61f
11:00pm 1.3ft 2s 16 20 mph 1007.1mb 57f 61f
10:50pm  -   -  16 18 mph 1007.5mb - 61f
10:40pm  -   -  13 18 mph 1007.8mb - 61f
10:30pm  -   -  16 18 mph 1008mb - 61f
10:20pm  -   -  16 18 mph 1008.1mb - 62f
10:10pm  -   -  13 16 mph 1008.4mb - 62f
10:00pm 1.3ft 2s 13 16 mph 1008.5mb 57f 62f
9:50pm  -   -  13 18 mph 1008.6mb - 62f
9:40pm  -   -  13 16 mph 1008.7mb - 62f
9:30pm  -   -  13 16 mph 1008.8mb - 62f
9:20pm  -   -  13 18 mph 1008.8mb - 62f
9:10pm  -   -  16 18 mph 1008.9mb - 62f
9:00pm 1ft 2s 13 16 mph 1009.2mb 58f 62f
8:50pm  -   -  13 16 mph 1009.5mb - 62f
8:40pm  -   -  11 13 mph 1009.9mb - 62f
8:30pm  -   -  13 16 mph 1010mb - 62f
8:20pm  -   -  11 13 mph 1010mb - 62f
8:10pm  -   -  11 13 mph 1010mb - 62f
8:00pm 1ft 2s 9 11 mph 1010mb 58f 62f
7:50pm  -   -  11 13 mph 1010.2mb - 63f
7:40pm  -   -  9 13 mph 1010.3mb - 63f
7:30pm  -   -  9 11 mph 1010.3mb - 63f
7:20pm  -   -  9 11 mph 1010.3mb - 64f
7:10pm  -   -  9 11 mph 1010.1mb - 64f
7:00pm 1ft 2s 9 11 mph 1010.1mb 60f 63f
6:50pm  -   -  9 13 mph 1010mb - 64f
6:40pm  -   -  11 13 mph 1009.9mb - 64f
6:30pm  -   -  11 13 mph 1010mb - 64f
6:20pm  -   -  9 11 mph 1010.2mb - 64f
6:10pm  -   -  7 9 mph 1010.5mb - 64f
6:00pm 1ft 2s 7 9 mph 1010.7mb 60f 64f
5:50pm  -   -  7 11 mph 1010.6mb - 64f
5:40pm  -   -  9 13 mph 1010.6mb - 64f
5:30pm  -   -  11 16 mph 1010.7mb - 64f
5:20pm  -   -  11 16 mph 1010.7mb - 64f
5:10pm  -   -  13 16 mph 1010.8mb - 64f
5:00pm 1ft 2s 11 13 mph 1011.1mb 58f 64f
4:50pm  -   -  9 11 mph 1011.3mb - 64f
4:40pm  -   -  7 11 mph 1011.4mb - 64f
4:30pm  -   -  7 9 mph 1011.6mb - 64f
4:20pm  -   -  9 11 mph 1011.7mb - 64f
4:10pm  -   -  9 11 mph 1011.8mb - 64f
4:00pm 1ft 2s 11 13 mph 1012mb 58f 64f
3:50pm  -   -  11 13 mph 1012.1mb - 64f
3:40pm  -   -  9 13 mph 1012.2mb - 64f
3:30pm  -   -  7 9 mph 1012.3mb - 64f
3:20pm  -   -  9 11 mph 1012.5mb - 64f
3:10pm  -   -  11 13 mph 1012.4mb - 64f
3:00pm 1.3ft 2s 11 13 mph 1012.4mb 58f 64f
2:50pm  -   -  11 13 mph 1012.6mb - 64f
2:40pm  -   -  11 13 mph 1012.6mb - 64f
2:30pm  -   -  13 16 mph 1012.6mb - 64f
2:20pm  -   -  13 16 mph 1013mb - 64f
2:10pm  -   -  11 13 mph 1013.1mb - 64f
2:00pm 1.3ft 2s 13 16 mph 1013.2mb 59f 64f
1:50pm  -   -  11 13 mph 1013.2mb - 64f
1:40pm  -   -  11 13 mph 1013.3mb - 64f
1:30pm  -   -  13 16 mph 1013.2mb - 64f
1:20pm  -   -  13 16 mph 1013.5mb - 65f
1:10pm  -   -  11 13 mph 1013.7mb - 65f
1:00pm 1ft 2s 11 16 mph 1013.8mb 58f 65f
12:50pm  -   -  11 13 mph 1013.9mb - 65f
12:40pm  -   -  11 11 mph 1014.1mb - 65f
12:30pm  -   -  11 13 mph 1014.1mb - 65f
12:20pm  -   -  9 11 mph 1014.3mb - 65f
12:10pm  -   -  9 11 mph 1014.5mb - 65f
12:00pm 1ft 2s 9 11 mph 1014.5mb 59f 65f
11:50am  -   -  9 11 mph 1014.6mb - 65f
11:40am  -   -  9 11 mph 1014.5mb - 65f
11:30am  -   -  11 13 mph 1014.4mb - 65f
11:20am  -   -  11 13 mph 1014.4mb - 65f
11:10am  -   -  11 13 mph 1014.5mb - 65f
11:00am 1.3ft 2s 11 13 mph 1014.7mb 59f 64f
10:50am  -   -  11 13 mph 1014.9mb - 64f
10:40am  -   -  9 11 mph 1015mb - 64f
10:30am  -   -  7 11 mph 1015.1mb - 64f
10:20am  -   -  9 11 mph 1014.8mb - 64f
10:10am  -   -  9 11 mph 1014.7mb - 64f
10:00am 1.3ft 2s 11 13 mph 1014.7mb 59f 64f
9:50am  -   -  11 16 mph 1014.6mb - 64f
9:40am  -   -  11 16 mph 1014.7mb - 64f
9:30am  -   -  13 16 mph 1014.7mb - 64f
9:20am  -   -  13 16 mph 1014.7mb - 64f
9:10am  -   -  16 18 mph 1014.5mb - 64f
9:00am 1.3ft 2s 13 18 mph 1014.5mb 58f 64f
8:50am  -   -  13 16 mph 1014.6mb - 65f
8:40am  -   -  13 16 mph 1014.6mb - 65f
8:30am  -   -  13 16 mph 1014.6mb - 65f
8:20am  -   -  13 16 mph 1014.5mb - 65f
8:10am  -   -  13 16 mph 1014.6mb - 65f
8:00am 1.3ft 2s 11 13 mph 1014.5mb 57f 64f
7:50am  -   -  11 13 mph 1014.3mb - 64f
7:40am  -   -  13 16 mph 1014.1mb - 64f
7:30am  -   -  13 16 mph 1014.1mb - 64f
7:20am  -   -  11 16 mph 1014.2mb - 64f
7:10am  -   -  13 16 mph 1014.1mb - 64f
7:00am 1ft 2s 11 13 mph 1014.4mb 58f 64f
6:50am  -   -  11 13 mph 1014.3mb - 64f
6:40am  -   -  11 13 mph 1014.2mb - 64f
6:30am  -   -  11 13 mph 1014.4mb - 64f
6:20am  -   -  11 13 mph 1014.6mb - 63f
6:10am  -   -  11 13 mph 1014.7mb - 64f
6:00am 1ft 2s 11 13 mph 1014.6mb 59f 64f
5:50am  -   -  11 13 mph 1014.4mb - 64f
5:40am  -   -  11 13 mph 1014.4mb - 64f
5:30am  -   -  13 16 mph 1014.3mb - 64f
5:20am  -   -  11 16 mph 1014.2mb - 64f
5:10am  -   -  11 13 mph 1014.3mb - 64f
5:00am 1ft 2s 11 11 mph 1014.2mb 58f 64f
4:50am  -   -  9 11 mph 1014.4mb - 64f
4:40am  -   -  9 11 mph 1014.3mb - 64f
4:30am  -   -  9 11 mph 1014.3mb - 64f
4:20am  -   -  9 11 mph 1014.3mb - 64f
4:10am  -   -  9 9 mph 1014.2mb - 64f
4:00am 1ft 2s 7 9 mph 1014.3mb 58f 65f
3:50am  -   -  7 7 mph 1014.5mb - 64f
3:40am  -   -  7 7 mph 1014.5mb - 64f
3:30am  -   -  7 9 mph 1014.4mb - 64f
3:20am  -   -  7 11 mph 1014.2mb - 64f
3:10am  -   -  9 11 mph 1014mb - 64f
3:00am 1ft 2s 11 13 mph 1013.9mb 58f 64f
2:50am  -   -  11 13 mph 1013.9mb - 64f
2:40am  -   -  11 13 mph 1013.8mb - 64f
2:30am  -   -  9 11 mph 1014.1mb - 64f
2:20am  -   -  9 11 mph 1014.3mb - 64f
2:10am  -   -  9 11 mph 1014.3mb - 64f
2:00am 1ft 2s 11 13 mph 1014.4mb 58f 64f
1:50am  -   -  11 13 mph 1014.6mb - 64f
1:40am  -   -  11 13 mph 1014.7mb - 64f
1:30am  -   -  11 13 mph 1014.8mb - 64f
1:20am  -   -  11 13 mph 1014.9mb - 65f
1:10am  -   -  11 13 mph 1015mb - 65f
1:00am  -   -  11 13 mph 1014.9mb 59f 65f
12:50am  -   -  11 13 mph 1014.9mb - 65f
12:40am  -   -  11 13 mph 1014.9mb - 65f
12:30am  -   -  11 11 mph 1015.1mb - 65f
12:20am  -   -  9 11 mph 1015.2mb - 65f
12:10am  -   -  7 9 mph 1015.2mb - 65f
12:00am 0.3ft  -  7 9 mph 1015.4mb 59f 65f
Mon 05/22 11:50pm  -   -  7 9 mph 1015.4mb - 66f
11:40pm  -   -  4 7 mph 1015.4mb - 66f
11:30pm  -   -  4 7 mph 1015.4mb - 66f
11:20pm  -   -  4 7 mph 1015.6mb - 66f
11:10pm  -   -  4 7 mph 1015.8mb - 66f
11:00pm 0.3ft  -  4 7 mph 1015.8mb 58f 66f
10:50pm  -   -  7 7 mph 1015.8mb - 66f
10:40pm  -   -  4 7 mph 1015.8mb - 66f
10:30pm  -   -  4 7 mph 1015.7mb - 66f
10:20pm  -   -  4 4 mph 1015.4mb - 66f
10:10pm  -   -  4 7 mph 1015.3mb - 66f
10:00pm  -   -  7 7 mph 1015.3mb 58f 66f
9:50pm  -   -  4 7 mph 1015.5mb - 66f
9:40pm  -   -  4 4 mph 1015.6mb - 66f
9:30pm  -   -  4 7 mph 1015.7mb - 66f
9:20pm  -   -  4 7 mph 1015.5mb - 66f
9:10pm  -   -  7 7 mph 1015.5mb - 66f
9:00pm 0.3ft  -  7 7 mph 1015.7mb 58f 66f
8:50pm  -   -  7 7 mph 1015.7mb - 65f
8:40pm  -   -  7 7 mph 1015.5mb - 65f
8:30pm  -   -  7 9 mph 1015.4mb - 65f
8:20pm  -   -  9 9 mph 1015.3mb - 65f
8:10pm  -   -  7 9 mph 1015.2mb - 65f
8:00pm 0.3ft  -  7 7 mph 1015.2mb 58f 65f
7:50pm  -   -  7 7 mph 1015.1mb - 65f
7:40pm  -   -  4 7 mph 1015.2mb - 65f
7:30pm  -   -  4 7 mph 1015.3mb - 65f
7:20pm  -   -  4 7 mph 1015.4mb - 65f
7:10pm  -   -  7 7 mph 1015.4mb - 65f
7:00pm 0.3ft  -  7 7 mph 1015.4mb 57f 65f
6:50pm  -   -  4 7 mph 1015.3mb - 65f
6:40pm  -   -  7 7 mph 1015.2mb - 65f
6:30pm  -   -  4 7 mph 1015.1mb - 65f
6:20pm  -   -  4 7 mph 1015.2mb - 65f
6:10pm  -   -  2 7 mph 1015.2mb - 65f
6:00pm 0.3ft  -  2 4 mph 1015.1mb 57f 65f
5:50pm  -   -  2 2 mph 1015.2mb - 65f
5:40pm  -   -  2 2 mph 1015.4mb - 65f
5:30pm  -   -  2 4 mph 1015.5mb - 65f
5:20pm  -   -  2 4 mph 1015.4mb - 65f
5:10pm  -   -  2 4 mph 1015.5mb - 65f
5:00pm 0.3ft  -  4 7 mph 1015.5mb 58f 65f
4:50pm  -   -  7 7 mph 1015.4mb - 65f
4:40pm  -   -  7 7 mph 1015.4mb - 65f
4:30pm  -   -  7 9 mph 1015.4mb - 65f
4:20pm  -   -  7 7 mph 1015.4mb - 65f
4:10pm  -   -  4 7 mph 1015.4mb - 64f
4:00pm 0.3ft  -  4 4 mph 1015.3mb 58f 65f
3:50pm  -   -  4 7 mph 1015.2mb - 64f
3:40pm  -   -  4 4 mph 1015.3mb - 64f
3:30pm  -   -  4 7 mph 1015.3mb - 64f
3:20pm  -   -  4 7 mph 1015.3mb - 64f
3:10pm  -   -  4 4 mph 1015.4mb - 64f
3:00pm 0.3ft  -  4 4 mph 1015.6mb 59f 64f
2:50pm  -   -  2 4 mph 1015.9mb - 64f
2:40pm  -   -  2 4 mph 1016.2mb - 65f
2:30pm  -   -   -  2 mph 1016.5mb - 65f
2:20pm  -   -   -  2 mph 1016.7mb - 65f
2:10pm  -   -   -  2 mph 1016.9mb - 64f
2:00pm 0.3ft  -   -  2 mph 1017mb 58f 64f
1:50pm  -   -   -  2 mph 1017.1mb - 64f
1:40pm  -   -  2 2 mph 1017.3mb - 64f
1:30pm  -   -   -  2 mph 1017.4mb - 64f
1:20pm  -   -   -  2 mph 1017.5mb - 64f
1:10pm  -   -   -  2 mph 1017.5mb - 64f
1:00pm 0.3ft  -   -  2 mph 1017.6mb 58f 63f
12:50pm  -   -  2 4 mph 1017.5mb - 63f
12:40pm  -   -   -  0 mph 1017.7mb - 63f
12:30pm  -   -   -  2 mph 1017.9mb - 63f
12:20pm  -   -   -  2 mph 1017.9mb - 63f
12:10pm  -   -   -  2 mph 1018mb - 63f
12:00pm 0.3ft  -  2 4 mph 1018.1mb 58f 62f
11:50am  -   -  2 4 mph 1018.1mb - 62f
11:40am  -   -  4 4 mph 1018.2mb - 62f
11:30am  -   -  2 4 mph 1018.2mb - 62f
11:20am  -   -  2 4 mph 1018.4mb - 62f
11:10am  -   -  2 4 mph 1018.4mb - 62f
11:00am 0.7ft  -  4 4 mph 1018.5mb 59f 62f
10:50am  -   -  2 4 mph 1018.7mb - 61f
10:40am  -   -  4 4 mph 1018.9mb - 61f
10:30am  -   -  4 7 mph 1018.7mb - 61f
10:20am  -   -  4 7 mph 1018.8mb - 61f
10:10am  -   -  4 7 mph 1019mb - 61f
10:00am 0.7ft  -  4 7 mph 1019.2mb 58f 61f
9:50am  -   -  2 4 mph 1019.3mb - 61f
9:40am  -   -  4 7 mph 1019.4mb - 61f
9:30am  -   -  7 9 mph 1019.3mb - 61f
9:20am  -   -  9 9 mph 1019.3mb - 61f
9:10am  -   -  9 11 mph 1019.3mb - 61f
9:00am 0.7ft  -  9 11 mph 1019.5mb 55f 61f
8:50am  -   -  9 11 mph 1019.5mb - 61f
8:40am  -   -  9 11 mph 1019.5mb - 61f
8:30am  -   -  9 11 mph 1019.6mb - 61f
8:20am  -   -  9 11 mph 1019.6mb - 60f
8:10am  -   -  9 11 mph 1019.7mb - 60f
8:00am 1ft 2s 9 11 mph 1019.8mb 56f 60f
7:50am  -   -  9 9 mph 1019.8mb - 60f
7:40am  -   -  9 11 mph 1019.8mb - 60f
7:30am  -   -  9 9 mph 1019.8mb - 60f
7:20am  -   -  9 9 mph 1019.9mb - 60f
7:10am  -   -  7 9 mph 1019.9mb - 60f
7:00am 1ft 2s 9 9 mph 1019.9mb 57f 60f
6:50am  -   -  9 11 mph 1019.9mb - 60f
6:40am  -   -  9 11 mph 1019.9mb - 60f
6:30am  -   -  9 11 mph 1020mb - 60f
6:20am  -   -  9 9 mph 1020mb - 60f
6:10am  -   -  7 9 mph 1020mb - 60f
6:00am 1ft 2s 9 11 mph 1020mb 56f 60f
5:50am  -   -  9 11 mph 1020mb - 60f
5:40am  -   -  11 13 mph 1019.9mb - 60f
5:30am  -   -  11 11 mph 1020mb - 60f
5:20am  -   -  11 11 mph 1020mb - 60f
5:10am  -   -  9 11 mph 1020.1mb - 60f
5:00am  -   -  9 11 mph 1020.3mb 54f 60f
4:50am  -   -  9 11 mph 1020.3mb - 60f
4:40am  -   -  9 11 mph 1020.3mb - 60f
4:30am  -   -  9 11 mph 1020.4mb - 60f
4:20am  -   -  7 11 mph 1020.5mb - 60f
4:10am  -   -  7 11 mph 1020.4mb - 60f
4:00am 0.7ft  -  9 9 mph 1020.5mb 56f 60f
3:50am  -   -  9 11 mph 1020.5mb - 60f
3:40am  -   -  9 11 mph 1020.6mb - 59f
3:30am  -   -  7 9 mph 1020.7mb - 60f
3:20am  -   -  7 9 mph 1020.6mb - 60f
3:10am  -   -  7 9 mph 1020.7mb - 60f
3:00am 0.7ft  -  7 9 mph 1020.8mb 57f 60f
2:50am  -   -  7 9 mph 1021mb - 59f
2:40am  -   -  7 7 mph 1021mb - 59f
2:30am  -   -  7 7 mph 1021.1mb - 59f
2:20am  -   -  7 7 mph 1021.3mb - 59f
2:10am  -   -  7 9 mph 1021.3mb - 59f
2:00am 1ft 2s 9 11 mph 1021.3mb 56f 60f
1:50am  -   -  9 11 mph 1021.4mb - 61f
1:40am  -   -  9 11 mph 1021.5mb - 61f
1:30am  -   -  9 11 mph 1021.6mb - 62f
1:20am  -   -  7 11 mph 1021.7mb - 62f
1:10am  -   -  9 11 mph 1021.8mb - 62f
1:00am 1ft 2s 7 11 mph 1022mb 57f 62f
12:50am  -   -  7 9 mph 1022.3mb - 62f
12:40am  -   -  7 7 mph 1022.5mb - 61f
12:30am  -   -  7 9 mph 1022.7mb - 61f
12:20am  -   -  7 9 mph 1022.8mb - 62f
12:10am  -   -  7 9 mph 1022.9mb - 62f
12:00am 1.3ft 3s 7 9 mph 1023mb 58f 62f
Sun 05/21 11:50pm  -   -  9 9 mph 1023mb - 62f
11:40pm  -   -  9 13 mph 1023mb - 62f
11:30pm  -   -  9 11 mph 1023.2mb - 62f
11:20pm  -   -  9 13 mph 1023.2mb - 62f
11:10pm  -   -  9 13 mph 1023.3mb - 62f
11:00pm 1.6ft 3s 9 11 mph 1023.5mb 55f 62f
10:50pm  -   -  11 13 mph 1023.6mb - 62f
10:40pm  -   -  11 13 mph 1023.7mb - 62f
10:30pm  -   -  11 16 mph 1023.7mb - 62f
10:20pm  -   -  11 13 mph 1023.8mb - 62f
10:10pm  -   -  13 16 mph 1023.8mb - 62f
10:00pm 1.6ft 3s 13 16 mph 1023.8mb 56f 63f
9:50pm  -   -  13 16 mph 1023.8mb - 63f
9:40pm  -   -  13 16 mph 1023.9mb - 63f
9:30pm  -   -  11 13 mph 1024mb - 63f
9:20pm  -   -  13 16 mph 1023.9mb - 63f
9:10pm  -   -  13 18 mph 1023.9mb - 64f
9:00pm 1.6ft 3s 13 18 mph 1023.8mb 57f 64f
8:50pm  -   -  16 18 mph 1023.7mb - 64f
8:40pm  -   -  13 18 mph 1023.8mb - 64f
8:30pm  -   -  13 18 mph 1023.8mb - 64f
8:20pm  -   -  16 18 mph 1023.9mb - 65f
8:10pm  -   -  16 18 mph 1023.7mb - 65f
8:00pm 1.3ft 3s 16 18 mph 1023.6mb 57f 65f
7:50pm  -   -  16 18 mph 1023.6mb - 65f
7:40pm  -   -  16 18 mph 1023.7mb - 66f
7:30pm  -   -  16 18 mph 1023.8mb - 66f
7:20pm  -   -  13 16 mph 1023.9mb - 66f
7:10pm  -   -  13 18 mph 1023.8mb - 66f
7:00pm 1.3ft 3s 13 18 mph 1023.8mb 57f 66f
6:50pm  -   -  13 16 mph 1023.8mb - 67f
6:40pm  -   -  13 16 mph 1023.7mb - 67f
6:30pm  -   -  13 16 mph 1023.6mb - 67f
6:20pm  -   -  13 16 mph 1023.7mb - 67f
6:10pm  -   -  13 16 mph 1023.8mb - 67f
6:00pm 0.7ft  -  11 13 mph 1023.9mb 56f 67f
5:50pm  -   -  9 13 mph 1024mb - 67f
5:40pm  -   -  11 13 mph 1024.1mb - 67f
5:30pm  -   -  11 13 mph 1024.2mb - 67f
5:20pm  -   -  9 11 mph 1024.3mb - 67f
5:10pm  -   -  9 11 mph 1024.4mb - 67f
5:00pm 0.7ft  -  9 13 mph 1024.5mb 58f 67f
4:50pm  -   -  9 11 mph 1024.4mb - 67f
4:40pm  -   -  9 11 mph 1024.6mb - 67f
4:30pm  -   -  4 9 mph 1024.9mb - 67f
4:20pm  -   -  4 7 mph 1025mb - 67f
4:10pm  -   -  2 7 mph 1024.9mb - 67f
4:00pm 0.7ft  -  2 4 mph 1025mb 58f 67f
3:50pm  -   -  2 4 mph 1025mb - 67f
3:40pm  -   -  4 9 mph 1025.1mb - 67f
3:30pm  -   -  4 7 mph 1025.2mb - 67f
3:20pm  -   -  7 13 mph 1025.3mb - 67f
3:10pm  -   -  9 11 mph 1025.4mb - 67f
3:00pm  -   -  7 9 mph 1025.5mb 57f 67f
2:50pm  -   -  9 11 mph 1025.5mb - 67f
2:40pm  -   -  7 11 mph 1025.6mb - 67f
2:30pm  -   -  7 9 mph 1025.7mb - 67f
2:20pm  -   -  7 9 mph 1025.7mb - 67f
2:10pm  -   -  7 9 mph 1025.8mb - 67f
2:00pm 0.7ft  -  7 9 mph 1026.1mb 58f 66f
1:50pm  -   -  4 9 mph 1026.1mb - 66f
1:40pm  -   -  9 11 mph 1025.9mb - 66f
1:30pm  -   -  9 11 mph 1025.8mb - 66f
1:20pm  -   -  7 11 mph 1026.1mb - 65f
1:10pm  -   -  7 9 mph 1026.3mb - 65f
1:00pm 0.7ft  -  4 7 mph 1026.5mb 57f 64f
12:50pm  -   -  4 7 mph 1026.7mb - 64f
12:40pm  -   -  4 7 mph 1026.6mb - 64f
12:30pm  -   -  7 9 mph 1026.6mb - 64f
12:20pm  -   -  7 9 mph 1026.7mb - 64f
12:10pm  -   -  4 9 mph 1026.9mb - 63f
12:00pm 0.7ft  -  7 9 mph 1027mb 58f 63f
11:50am  -   -  4 9 mph 1027.2mb - 63f
11:40am  -   -  7 11 mph 1027mb - 63f
11:30am  -   -  9 11 mph 1026.8mb - 63f
11:20am  -   -  7 11 mph 1027.1mb - 62f
11:10am  -   -  7 9 mph 1027.2mb - 62f
11:00am 0.7ft  -  7 9 mph 1027.4mb 59f 62f
10:50am  -   -  7 11 mph 1027.4mb - 62f
10:40am  -   -  9 16 mph 1026.9mb - 61f
10:30am  -   -  11 13 mph 1026.8mb - 61f
10:20am  -   -  13 16 mph 1026.9mb - 61f
10:10am  -   -  9 13 mph 1027.1mb - 60f
10:00am 0.7ft  -  7 9 mph 1027.6mb 57f 60f
9:50am  -   -  4 7 mph 1027.8mb - 60f
9:40am  -   -  2 4 mph 1027.9mb - 60f
9:30am  -   -  2 7 mph 1027.8mb - 59f
9:20am  -   -  4 7 mph 1027.7mb - 59f
9:10am  -   -  4 7 mph 1027.7mb - 59f
9:00am 1ft 2s 7 9 mph 1027.8mb 57f 59f
8:50am  -   -  7 9 mph 1027.8mb - 59f
8:40am  -   -  4 7 mph 1027.9mb - 59f
8:30am  -   -  4 7 mph 1028mb - 59f
8:20am  -   -  7 9 mph 1027.8mb - 59f
8:10am  -   -  7 9 mph 1027.7mb - 59f
8:00am 1.3ft 2s 4 9 mph 1027.4mb 57f 59f
7:50am  -   -  7 11 mph 1027.2mb - 59f
7:40am  -   -  7 11 mph 1027mb - 59f
7:30am  -   -  9 13 mph 1026.6mb - 59f
7:20am  -   -  11 13 mph 1026.6mb - 58f
7:10am  -   -  13 16 mph 1026.3mb - 58f
7:00am 1.3ft 2s 13 18 mph 1026mb 57f 58f
6:50am  -   -  13 18 mph 1025.7mb - 58f
6:40am  -   -  16 18 mph 1025.4mb - 58f
6:30am  -   -  18 20 mph 1025mb - 58f
6:20am  -   -  16 20 mph 1025.1mb - 58f
6:10am  -   -  16 18 mph 1025.4mb - 58f
6:00am 1ft 2s 13 16 mph 1025.6mb 56f 58f
5:50am  -   -  11 16 mph 1025.8mb - 58f
5:40am  -   -  11 13 mph 1026mb - 58f
5:30am  -   -  9 13 mph 1026.1mb - 58f
5:20am  -   -  11 13 mph 1026.2mb - 58f
5:10am  -   -  11 13 mph 1026mb - 58f
5:00am 1ft 2s 11 13 mph 1026.1mb 58f 58f
4:50am  -   -  11 13 mph 1026.2mb - 58f
4:40am  -   -  9 13 mph 1026.2mb - 58f
4:30am  -   -  9 13 mph 1026.3mb - 58f
4:20am  -   -  11 13 mph 1026.4mb - 58f
4:10am  -   -  9 13 mph 1026.5mb - 58f
4:00am 1ft 2s 9 13 mph 1026.5mb 57f 58f
3:50am  -   -  9 11 mph 1026.5mb - 58f
3:40am  -   -  9 11 mph 1026.4mb - 58f
3:30am  -   -  9 13 mph 1026.4mb - 59f
3:20am  -   -  11 13 mph 1026.2mb - 59f
3:10am  -   -  11 13 mph 1026.3mb - 59f
3:00am 1.3ft 2s 11 13 mph 1026.3mb 59f 59f
2:50am  -   -  9 11 mph 1026.5mb - 59f
2:40am  -   -  9 11 mph 1026.7mb - 59f
2:30am  -   -  9 11 mph 1026.8mb - 59f
2:20am  -   -  9 11 mph 1026.7mb - 59f
2:10am  -   -  9 11 mph 1026.7mb - 59f
2:00am 1ft 2s 9 11 mph 1026.8mb 58f 59f
1:50am  -   -  9 11 mph 1026.9mb - 59f
1:40am  -   -  9 11 mph 1026.9mb - 59f
1:30am  -   -  9 13 mph 1027mb - 59f
1:20am  -   -  11 16 mph 1026.8mb - 59f
1:10am  -   -  11 16 mph 1026.8mb - 59f
1:00am 1.3ft 2s 11 16 mph 1026.9mb 58f 59f
12:50am  -   -  13 16 mph 1026.9mb - 59f
12:40am  -   -  13 18 mph 1026.9mb - 59f
12:30am  -   -  13 18 mph 1027mb - 59f
12:20am  -   -  13 16 mph 1026.9mb - 59f
12:10am  -   -  13 16 mph 1026.8mb - 59f
12:00am 1.6ft 3s 13 18 mph 1026.9mb 59f 60f
Sat 05/20 11:50pm  -   -  13 18 mph 1027.1mb - 60f
11:40pm  -   -  13 18 mph 1027mb - 60f
11:30pm  -   -  13 16 mph 1027.1mb - 60f
11:20pm  -   -  13 16 mph 1027.2mb - 60f
11:10pm  -   -  16 18 mph 1027.2mb - 60f
11:00pm 1.6ft 3s 16 20 mph 1027.2mb 58f 60f
10:50pm  -   -  16 18 mph 1027.3mb - 60f
10:40pm  -   -  16 20 mph 1027.5mb - 60f
10:30pm  -   -  13 16 mph 1027.5mb - 60f
10:20pm  -   -  16 20 mph 1027.2mb - 60f
10:10pm  -   -  16 20 mph 1027mb - 60f
10:00pm 1.6ft 3s 13 18 mph 1027mb 58f 60f
9:50pm  -   -  13 18 mph 1027.1mb - 61f
9:40pm  -   -  13 16 mph 1027mb - 61f
9:30pm  -   -  13 16 mph 1027mb - 61f
9:20pm  -   -  13 16 mph 1026.9mb - 62f
9:10pm  -   -  13 18 mph 1027mb - 62f
9:00pm 1.6ft 3s 13 18 mph 1026.7mb 57f 62f
8:50pm  -   -  13 18 mph 1026.7mb - 62f
8:40pm  -   -  13 18 mph 1026.6mb - 62f
8:30pm  -   -  13 18 mph 1026.4mb - 63f
8:20pm  -   -  13 16 mph 1026.5mb - 63f
8:10pm  -   -  13 18 mph 1026.4mb - 63f
8:00pm 1.6ft 3s 13 16 mph 1026.3mb 58f 64f
7:50pm  -   -  13 18 mph 1026.1mb - 64f
7:40pm  -   -  16 18 mph 1026mb - 64f
7:30pm  -   -  16 18 mph 1025.9mb - 64f
7:20pm  -   -  13 18 mph 1025.8mb - 65f
7:10pm  -   -  16 20 mph 1025.5mb - 65f
7:00pm 1.6ft 2s 16 18 mph 1025.2mb 59f 65f
6:50pm  -   -  16 18 mph 1025.1mb - 66f
6:40pm  -   -  16 18 mph 1025mb - 66f
6:30pm  -   -  16 18 mph 1024.9mb - 66f
6:20pm  -   -  13 18 mph 1024.8mb - 66f
6:10pm  -   -  13 20 mph 1024.7mb - 67f
6:00pm 1.6ft 3s 13 18 mph 1024.7mb 61f 67f
5:50pm  -   -  16 18 mph 1024.6mb - 67f
5:40pm  -   -  13 20 mph 1024.7mb - 67f
5:30pm  -   -  13 18 mph 1024.7mb - 67f
5:20pm  -   -  13 16 mph 1024.8mb - 67f
5:10pm  -   -  13 16 mph 1024.6mb - 67f
5:00pm 1.6ft 3s 13 18 mph 1024.5mb 59f 67f
4:50pm  -   -  16 18 mph 1024.4mb - 67f
4:40pm  -   -  16 20 mph 1024.4mb - 67f
4:30pm  -   -  16 20 mph 1024.3mb - 67f
4:20pm  -   -  16 20 mph 1024.3mb - 67f
4:10pm  -   -  16 20 mph 1024.4mb - 67f
4:00pm 1.6ft 3s 16 18 mph 1024.5mb 60f 67f
3:50pm  -   -  16 18 mph 1024.5mb - 67f
3:40pm  -   -  16 18 mph 1024.5mb - 67f
3:30pm  -   -  16 20 mph 1024.5mb - 67f
3:20pm  -   -  18 20 mph 1024.5mb - 67f
3:10pm  -   -  18 20 mph 1024.5mb - 67f
3:00pm 2ft 3s 18 20 mph 1024.3mb 58f 67f
2:40pm  -   -  18 22 mph 1024.1mb - 67f
2:30pm  -   -  18 20 mph 1024.1mb - 67f
2:20pm  -   -  18 20 mph 1024.2mb - 66f
2:10pm  -   -  18 22 mph 1024.2mb - 67f
2:00pm 2ft 3s 16 20 mph 1024.3mb 58f 67f
1:50pm  -   -  16 18 mph 1024.3mb - 67f
1:40pm  -   -  16 20 mph 1024.2mb - 67f
1:30pm  -   -  16 20 mph 1024.3mb - 66f
1:20pm  -   -  18 20 mph 1024.2mb - 66f
1:10pm  -   -  18 20 mph 1024.1mb - 66f
1:00pm 2ft 3s 18 22 mph 1024mb 59f 66f
12:50pm  -   -  18 20 mph 1024mb - 67f
12:40pm  -   -  18 22 mph 1024mb - 67f
12:30pm  -   -  16 20 mph 1024mb - 67f
12:20pm  -   -  18 20 mph 1023.9mb - 67f
12:10pm  -   -  18 20 mph 1023.8mb - 67f
12:00pm 2ft 3s 18 22 mph 1023.5mb 59f 67f
11:50am  -   -  18 20 mph 1023.5mb - 67f
11:40am  -   -  16 20 mph 1023.5mb - 67f
11:30am  -   -  16 20 mph 1023.4mb - 67f
11:20am  -   -  18 20 mph 1023.2mb - 67f
11:10am  -   -  16 20 mph 1023mb - 67f
11:00am 2.5ft 3s 18 22 mph 1022.7mb 60f 67f
10:50am  -   -  18 20 mph 1022.7mb - 67f
10:40am  -   -  18 22 mph 1022.6mb - 67f
10:30am  -   -  18 25 mph 1022.4mb - 67f
10:20am  -   -  16 20 mph 1022.2mb - 67f
10:10am  -   -  16 20 mph 1022.2mb - 67f
10:00am 2.5ft 3s 18 22 mph 1022mb 59f 67f
9:50am  -   -  20 25 mph 1022.1mb - 67f
9:40am  -   -  22 29 mph 1022mb - 67f
9:30am  -   -  20 25 mph 1021.9mb - 67f
9:20am  -   -  20 25 mph 1022mb - 67f
9:10am  -   -  20 27 mph 1021.7mb - 67f
9:00am 2.5ft 3s 18 22 mph 1021.5mb 59f 67f
8:50am  -   -  18 22 mph 1021.3mb - 67f
8:40am  -   -  18 27 mph 1021.1mb - 68f
8:30am  -   -  20 22 mph 1021mb - 68f
8:20am  -   -  20 25 mph 1020.8mb - 68f
8:10am  -   -  20 25 mph 1020.7mb - 68f
8:00am 2ft 3s 20 27 mph 1020.5mb 59f 68f
7:50am  -   -  20 25 mph 1020.4mb - 68f
7:40am  -   -  20 27 mph 1020.3mb - 68f
7:30am  -   -  20 25 mph 1020.1mb - 69f
7:20am  -   -  16 20 mph 1020.1mb - 69f
7:10am  -   -  18 22 mph 1019.9mb - 69f
7:00am 1.6ft 2s 16 20 mph 1019.5mb 58f 70f
6:50am  -   -  20 25 mph 1019.2mb - 70f
6:40am  -   -  20 25 mph 1019.1mb - 71f
6:30am  -   -  16 20 mph 1019.2mb - 71f
6:20am  -   -  16 20 mph 1019mb - 71f
6:10am  -   -  11 16 mph 1018.8mb - 71f